sensor_id;sensor_type;location;lat;lon;timestamp;P1;durP1;ratioP1;P2;durP2;ratioP2
56943;SDS011;42848;42.524;12.052;2023-02-01T00:01:59;12.70;;;6.28;;
56943;SDS011;42848;42.524;12.052;2023-02-01T00:04:26;11.02;;;5.63;;
56943;SDS011;42848;42.524;12.052;2023-02-01T00:06:52;11.10;;;6.32;;
56943;SDS011;42848;42.524;12.052;2023-02-01T00:09:17;13.25;;;8.00;;
56943;SDS011;42848;42.524;12.052;2023-02-01T00:11:43;14.70;;;8.65;;
56943;SDS011;42848;42.524;12.052;2023-02-01T00:14:09;20.20;;;10.93;;
56943;SDS011;42848;42.524;12.052;2023-02-01T00:16:35;14.02;;;8.35;;
56943;SDS011;42848;42.524;12.052;2023-02-01T00:19:03;12.38;;;6.80;;
56943;SDS011;42848;42.524;12.052;2023-02-01T00:21:30;13.70;;;7.45;;
56943;SDS011;42848;42.524;12.052;2023-02-01T00:23:57;10.90;;;6.22;;
56943;SDS011;42848;42.524;12.052;2023-02-01T00:26:25;12.05;;;6.95;;
56943;SDS011;42848;42.524;12.052;2023-02-01T00:28:56;12.05;;;6.05;;
56943;SDS011;42848;42.524;12.052;2023-02-01T00:31:22;14.10;;;7.65;;
56943;SDS011;42848;42.524;12.052;2023-02-01T00:33:48;11.73;;;6.40;;
56943;SDS011;42848;42.524;12.052;2023-02-01T00:36:14;12.07;;;7.00;;
56943;SDS011;42848;42.524;12.052;2023-02-01T00:38:39;14.95;;;8.05;;
56943;SDS011;42848;42.524;12.052;2023-02-01T00:41:06;19.75;;;12.60;;
56943;SDS011;42848;42.524;12.052;2023-02-01T00:43:35;30.63;;;18.38;;
56943;SDS011;42848;42.524;12.052;2023-02-01T00:46:01;20.23;;;12.18;;
56943;SDS011;42848;42.524;12.052;2023-02-01T00:48:28;14.50;;;7.82;;
56943;SDS011;42848;42.524;12.052;2023-02-01T00:50:54;12.25;;;7.10;;
56943;SDS011;42848;42.524;12.052;2023-02-01T00:53:24;12.55;;;6.90;;
56943;SDS011;42848;42.524;12.052;2023-02-01T00:55:50;9.63;;;5.57;;
56943;SDS011;42848;42.524;12.052;2023-02-01T00:58:15;9.50;;;5.50;;
56943;SDS011;42848;42.524;12.052;2023-02-01T01:00:41;9.73;;;5.55;;
56943;SDS011;42848;42.524;12.052;2023-02-01T01:03:07;10.32;;;5.20;;
56943;SDS011;42848;42.524;12.052;2023-02-01T01:05:46;9.48;;;5.10;;
56943;SDS011;42848;42.524;12.052;2023-02-01T01:08:13;11.10;;;5.78;;
56943;SDS011;42848;42.524;12.052;2023-02-01T01:10:40;12.25;;;6.00;;
56943;SDS011;42848;42.524;12.052;2023-02-01T01:13:07;11.18;;;5.95;;
56943;SDS011;42848;42.524;12.052;2023-02-01T01:15:39;12.70;;;6.00;;
56943;SDS011;42848;42.524;12.052;2023-02-01T01:18:06;10.73;;;6.03;;
56943;SDS011;42848;42.524;12.052;2023-02-01T01:20:33;10.35;;;6.18;;
56943;SDS011;42848;42.524;12.052;2023-02-01T01:23:00;12.80;;;6.00;;
56943;SDS011;42848;42.524;12.052;2023-02-01T01:25:26;11.02;;;6.35;;
56943;SDS011;42848;42.524;12.052;2023-02-01T01:27:52;11.30;;;6.30;;
56943;SDS011;42848;42.524;12.052;2023-02-01T01:30:18;10.15;;;6.18;;
56943;SDS011;42848;42.524;12.052;2023-02-01T01:32:44;10.68;;;6.38;;
56943;SDS011;42848;42.524;12.052;2023-02-01T01:35:10;11.52;;;6.38;;
56943;SDS011;42848;42.524;12.052;2023-02-01T01:37:36;11.82;;;6.53;;
56943;SDS011;42848;42.524;12.052;2023-02-01T01:40:05;12.18;;;7.35;;
56943;SDS011;42848;42.524;12.052;2023-02-01T01:42:38;10.43;;;6.78;;
56943;SDS011;42848;42.524;12.052;2023-02-01T01:45:26;10.73;;;6.57;;
56943;SDS011;42848;42.524;12.052;2023-02-01T01:47:56;11.05;;;6.47;;
56943;SDS011;42848;42.524;12.052;2023-02-01T01:50:27;11.15;;;6.60;;
56943;SDS011;42848;42.524;12.052;2023-02-01T01:52:59;14.32;;;8.30;;
56943;SDS011;42848;42.524;12.052;2023-02-01T01:55:28;12.30;;;7.05;;
56943;SDS011;42848;42.524;12.052;2023-02-01T01:58:00;14.82;;;9.02;;
56943;SDS011;42848;42.524;12.052;2023-02-01T02:00:39;14.00;;;7.65;;
56943;SDS011;42848;42.524;12.052;2023-02-01T02:03:07;12.23;;;7.38;;
56943;SDS011;42848;42.524;12.052;2023-02-01T02:05:42;11.32;;;6.18;;
56943;SDS011;42848;42.524;12.052;2023-02-01T02:08:10;7.95;;;5.32;;
56943;SDS011;42848;42.524;12.052;2023-02-01T02:10:36;9.90;;;5.20;;
56943;SDS011;42848;42.524;12.052;2023-02-01T02:15:54;12.18;;;5.25;;
56943;SDS011;42848;42.524;12.052;2023-02-01T02:18:26;8.13;;;4.88;;
56943;SDS011;42848;42.524;12.052;2023-02-01T02:21:29;8.77;;;5.20;;
56943;SDS011;42848;42.524;12.052;2023-02-01T02:27:19;21.77;;;14.15;;
56943;SDS011;42848;42.524;12.052;2023-02-01T02:43:10;7.80;;;4.70;;
56943;SDS011;42848;42.524;12.052;2023-02-01T02:49:43;7.82;;;4.30;;
56943;SDS011;42848;42.524;12.052;2023-02-01T02:52:02;8.52;;;4.57;;
56943;SDS011;42848;42.524;12.052;2023-02-01T02:54:52;8.00;;;4.13;;
56943;SDS011;42848;42.524;12.052;2023-02-01T02:57:23;7.30;;;4.18;;
56943;SDS011;42848;42.524;12.052;2023-02-01T03:00:15;8.07;;;4.32;;
56943;SDS011;42848;42.524;12.052;2023-02-01T03:03:02;8.52;;;4.32;;
56943;SDS011;42848;42.524;12.052;2023-02-01T03:05:47;8.30;;;4.35;;
56943;SDS011;42848;42.524;12.052;2023-02-01T03:08:18;9.75;;;4.47;;
56943;SDS011;42848;42.524;12.052;2023-02-01T03:10:48;8.88;;;4.88;;
56943;SDS011;42848;42.524;12.052;2023-02-01T03:13:26;7.85;;;4.32;;
56943;SDS011;42848;42.524;12.052;2023-02-01T03:16:07;9.50;;;4.70;;
56943;SDS011;42848;42.524;12.052;2023-02-01T03:21:38;7.60;;;4.47;;
56943;SDS011;42848;42.524;12.052;2023-02-01T03:24:59;8.35;;;4.40;;
56943;SDS011;42848;42.524;12.052;2023-02-01T03:27:14;7.15;;;4.05;;
56943;SDS011;42848;42.524;12.052;2023-02-01T03:29:48;9.05;;;4.40;;
56943;SDS011;42848;42.524;12.052;2023-02-01T03:32:15;7.32;;;4.07;;
56943;SDS011;42848;42.524;12.052;2023-02-01T03:34:42;7.88;;;3.67;;
56943;SDS011;42848;42.524;12.052;2023-02-01T03:37:12;7.30;;;4.40;;
56943;SDS011;42848;42.524;12.052;2023-02-01T03:39:48;8.38;;;4.55;;
56943;SDS011;42848;42.524;12.052;2023-02-01T03:42:35;7.53;;;4.40;;
56943;SDS011;42848;42.524;12.052;2023-02-01T03:47:48;7.50;;;4.40;;
56943;SDS011;42848;42.524;12.052;2023-02-01T03:50:19;8.13;;;4.30;;
56943;SDS011;42848;42.524;12.052;2023-02-01T03:52:50;8.77;;;4.80;;
56943;SDS011;42848;42.524;12.052;2023-02-01T03:55:38;7.30;;;4.38;;
56943;SDS011;42848;42.524;12.052;2023-02-01T03:58:14;10.48;;;5.20;;
56943;SDS011;42848;42.524;12.052;2023-02-01T04:00:46;7.57;;;4.82;;
56943;SDS011;42848;42.524;12.052;2023-02-01T04:03:17;9.90;;;5.38;;
56943;SDS011;42848;42.524;12.052;2023-02-01T04:05:42;9.27;;;4.60;;
56943;SDS011;42848;42.524;12.052;2023-02-01T04:08:08;7.20;;;4.35;;
56943;SDS011;42848;42.524;12.052;2023-02-01T04:10:34;7.35;;;4.20;;
56943;SDS011;42848;42.524;12.052;2023-02-01T04:12:59;8.80;;;4.25;;
56943;SDS011;42848;42.524;12.052;2023-02-01T04:15:25;8.43;;;4.53;;
56943;SDS011;42848;42.524;12.052;2023-02-01T04:17:51;10.43;;;4.43;;
56943;SDS011;42848;42.524;12.052;2023-02-01T04:20:16;7.40;;;4.40;;
56943;SDS011;42848;42.524;12.052;2023-02-01T04:22:43;9.27;;;5.35;;
56943;SDS011;42848;42.524;12.052;2023-02-01T04:25:08;9.43;;;5.82;;
56943;SDS011;42848;42.524;12.052;2023-02-01T04:27:34;8.65;;;4.88;;
56943;SDS011;42848;42.524;12.052;2023-02-01T04:30:01;10.23;;;5.07;;
56943;SDS011;42848;42.524;12.052;2023-02-01T04:32:27;9.05;;;5.22;;
56943;SDS011;42848;42.524;12.052;2023-02-01T04:34:52;10.38;;;6.07;;
56943;SDS011;42848;42.524;12.052;2023-02-01T04:37:18;10.32;;;5.50;;
56943;SDS011;42848;42.524;12.052;2023-02-01T04:39:44;21.23;;;14.60;;
56943;SDS011;42848;42.524;12.052;2023-02-01T04:42:09;11.77;;;7.32;;
56943;SDS011;42848;42.524;12.052;2023-02-01T04:44:35;12.00;;;7.20;;
56943;SDS011;42848;42.524;12.052;2023-02-01T04:47:07;13.75;;;9.00;;
56943;SDS011;42848;42.524;12.052;2023-02-01T04:49:33;15.73;;;8.88;;
56943;SDS011;42848;42.524;12.052;2023-02-01T04:51:58;29.80;;;17.52;;
56943;SDS011;42848;42.524;12.052;2023-02-01T04:54:24;17.95;;;10.77;;
56943;SDS011;42848;42.524;12.052;2023-02-01T04:56:50;25.75;;;16.23;;
56943;SDS011;42848;42.524;12.052;2023-02-01T04:59:16;20.30;;;11.75;;
56943;SDS011;42848;42.524;12.052;2023-02-01T05:01:41;22.05;;;12.60;;
56943;SDS011;42848;42.524;12.052;2023-02-01T05:04:07;21.00;;;12.48;;
56943;SDS011;42848;42.524;12.052;2023-02-01T05:06:33;16.83;;;9.88;;
56943;SDS011;42848;42.524;12.052;2023-02-01T05:08:58;13.98;;;8.30;;
56943;SDS011;42848;42.524;12.052;2023-02-01T05:11:24;15.02;;;8.27;;
56943;SDS011;42848;42.524;12.052;2023-02-01T05:14:08;13.38;;;7.95;;
56943;SDS011;42848;42.524;12.052;2023-02-01T05:16:34;15.63;;;8.95;;
56943;SDS011;42848;42.524;12.052;2023-02-01T05:19:00;12.48;;;7.88;;
56943;SDS011;42848;42.524;12.052;2023-02-01T05:21:26;15.57;;;8.65;;
56943;SDS011;42848;42.524;12.052;2023-02-01T05:23:52;12.48;;;7.65;;
56943;SDS011;42848;42.524;12.052;2023-02-01T05:26:38;14.50;;;8.52;;
56943;SDS011;42848;42.524;12.052;2023-02-01T05:29:07;11.48;;;7.35;;
56943;SDS011;42848;42.524;12.052;2023-02-01T05:31:34;14.70;;;8.15;;
56943;SDS011;42848;42.524;12.052;2023-02-01T05:34:00;16.33;;;9.70;;
56943;SDS011;42848;42.524;12.052;2023-02-01T05:36:26;13.32;;;8.20;;
56943;SDS011;42848;42.524;12.052;2023-02-01T05:38:52;13.88;;;8.23;;
56943;SDS011;42848;42.524;12.052;2023-02-01T05:41:18;14.65;;;8.75;;
56943;SDS011;42848;42.524;12.052;2023-02-01T05:43:43;14.05;;;8.82;;
56943;SDS011;42848;42.524;12.052;2023-02-01T05:46:09;15.30;;;8.95;;
56943;SDS011;42848;42.524;12.052;2023-02-01T05:48:38;15.07;;;8.30;;
56943;SDS011;42848;42.524;12.052;2023-02-01T05:51:05;15.45;;;8.77;;
56943;SDS011;42848;42.524;12.052;2023-02-01T05:53:31;14.13;;;8.60;;
56943;SDS011;42848;42.524;12.052;2023-02-01T05:55:56;12.88;;;8.52;;
56943;SDS011;42848;42.524;12.052;2023-02-01T05:58:22;15.52;;;8.95;;
56943;SDS011;42848;42.524;12.052;2023-02-01T06:00:48;16.38;;;8.20;;
56943;SDS011;42848;42.524;12.052;2023-02-01T06:03:13;14.85;;;8.85;;
56943;SDS011;42848;42.524;12.052;2023-02-01T06:05:39;16.10;;;8.68;;
56943;SDS011;42848;42.524;12.052;2023-02-01T06:08:05;15.05;;;9.20;;
56943;SDS011;42848;42.524;12.052;2023-02-01T06:10:32;13.88;;;8.02;;
56943;SDS011;42848;42.524;12.052;2023-02-01T06:12:59;13.10;;;8.55;;
56943;SDS011;42848;42.524;12.052;2023-02-01T06:15:24;13.10;;;7.65;;
56943;SDS011;42848;42.524;12.052;2023-02-01T06:17:50;12.57;;;8.07;;
56943;SDS011;42848;42.524;12.052;2023-02-01T06:20:15;14.57;;;8.65;;
56943;SDS011;42848;42.524;12.052;2023-02-01T06:22:42;14.50;;;8.50;;
56943;SDS011;42848;42.524;12.052;2023-02-01T06:25:08;17.60;;;9.68;;
56943;SDS011;42848;42.524;12.052;2023-02-01T06:27:35;13.80;;;8.88;;
56943;SDS011;42848;42.524;12.052;2023-02-01T06:30:01;23.33;;;13.00;;
56943;SDS011;42848;42.524;12.052;2023-02-01T06:32:27;20.10;;;11.38;;
56943;SDS011;42848;42.524;12.052;2023-02-01T06:34:53;16.50;;;9.10;;
56943;SDS011;42848;42.524;12.052;2023-02-01T06:37:21;18.00;;;10.13;;
56943;SDS011;42848;42.524;12.052;2023-02-01T06:39:48;28.40;;;13.95;;
56943;SDS011;42848;42.524;12.052;2023-02-01T06:42:14;24.10;;;13.60;;
56943;SDS011;42848;42.524;12.052;2023-02-01T06:44:40;22.70;;;13.80;;
56943;SDS011;42848;42.524;12.052;2023-02-01T06:47:05;19.48;;;11.23;;
56943;SDS011;42848;42.524;12.052;2023-02-01T06:49:31;21.85;;;12.20;;
56943;SDS011;42848;42.524;12.052;2023-02-01T06:51:57;19.67;;;10.70;;
56943;SDS011;42848;42.524;12.052;2023-02-01T06:54:25;32.05;;;17.75;;
56943;SDS011;42848;42.524;12.052;2023-02-01T06:56:51;27.65;;;15.73;;
56943;SDS011;42848;42.524;12.052;2023-02-01T06:59:17;21.08;;;12.50;;
56943;SDS011;42848;42.524;12.052;2023-02-01T07:01:43;26.33;;;14.60;;
56943;SDS011;42848;42.524;12.052;2023-02-01T07:04:12;23.45;;;13.60;;
56943;SDS011;42848;42.524;12.052;2023-02-01T07:06:41;20.40;;;12.13;;
56943;SDS011;42848;42.524;12.052;2023-02-01T07:09:06;20.10;;;11.80;;
56943;SDS011;42848;42.524;12.052;2023-02-01T07:11:33;20.20;;;11.75;;
56943;SDS011;42848;42.524;12.052;2023-02-01T07:13:59;19.23;;;11.48;;
56943;SDS011;42848;42.524;12.052;2023-02-01T07:16:24;20.60;;;11.50;;
56943;SDS011;42848;42.524;12.052;2023-02-01T07:18:51;18.98;;;11.63;;
56943;SDS011;42848;42.524;12.052;2023-02-01T07:21:17;19.40;;;10.93;;
56943;SDS011;42848;42.524;12.052;2023-02-01T07:23:44;22.48;;;11.40;;
56943;SDS011;42848;42.524;12.052;2023-02-01T07:26:10;18.02;;;10.05;;
56943;SDS011;42848;42.524;12.052;2023-02-01T07:28:38;13.52;;;8.90;;
56943;SDS011;42848;42.524;12.052;2023-02-01T07:31:05;14.40;;;8.77;;
56943;SDS011;42848;42.524;12.052;2023-02-01T07:33:31;16.55;;;9.10;;
56943;SDS011;42848;42.524;12.052;2023-02-01T07:35:57;22.95;;;11.55;;
56943;SDS011;42848;42.524;12.052;2023-02-01T07:38:29;24.48;;;13.40;;
56943;SDS011;42848;42.524;12.052;2023-02-01T07:40:58;38.08;;;19.95;;
56943;SDS011;42848;42.524;12.052;2023-02-01T07:43:25;30.95;;;16.92;;
56943;SDS011;42848;42.524;12.052;2023-02-01T07:45:52;20.70;;;12.07;;
56943;SDS011;42848;42.524;12.052;2023-02-01T07:48:18;23.35;;;13.43;;
56943;SDS011;42848;42.524;12.052;2023-02-01T07:50:45;25.35;;;13.32;;
56943;SDS011;42848;42.524;12.052;2023-02-01T07:53:10;25.13;;;13.95;;
56943;SDS011;42848;42.524;12.052;2023-02-01T07:55:39;27.77;;;15.07;;
56943;SDS011;42848;42.524;12.052;2023-02-01T07:58:05;24.92;;;14.77;;
56943;SDS011;42848;42.524;12.052;2023-02-01T08:00:31;26.65;;;14.68;;
56943;SDS011;42848;42.524;12.052;2023-02-01T08:03:15;27.85;;;15.73;;
56943;SDS011;42848;42.524;12.052;2023-02-01T08:05:41;27.45;;;16.38;;
56943;SDS011;42848;42.524;12.052;2023-02-01T08:08:06;32.05;;;16.77;;
56943;SDS011;42848;42.524;12.052;2023-02-01T08:10:32;30.25;;;17.08;;
56943;SDS011;42848;42.524;12.052;2023-02-01T08:12:59;27.63;;;15.63;;
56943;SDS011;42848;42.524;12.052;2023-02-01T08:15:27;29.67;;;15.65;;
56943;SDS011;42848;42.524;12.052;2023-02-01T08:17:53;25.30;;;14.57;;
56943;SDS011;42848;42.524;12.052;2023-02-01T08:20:23;24.27;;;13.77;;
56943;SDS011;42848;42.524;12.052;2023-02-01T08:22:51;17.50;;;9.75;;
56943;SDS011;42848;42.524;12.052;2023-02-01T08:25:16;14.45;;;8.20;;
56943;SDS011;42848;42.524;12.052;2023-02-01T08:27:42;13.57;;;7.80;;
56943;SDS011;42848;42.524;12.052;2023-02-01T08:30:09;13.70;;;7.72;;
56943;SDS011;42848;42.524;12.052;2023-02-01T08:32:35;16.08;;;8.32;;
56943;SDS011;42848;42.524;12.052;2023-02-01T08:35:01;17.95;;;9.02;;
56943;SDS011;42848;42.524;12.052;2023-02-01T08:37:28;16.45;;;9.30;;
56943;SDS011;42848;42.524;12.052;2023-02-01T08:39:54;19.05;;;10.40;;
56943;SDS011;42848;42.524;12.052;2023-02-01T08:42:19;29.27;;;14.65;;
56943;SDS011;42848;42.524;12.052;2023-02-01T08:45:03;22.55;;;11.73;;
56943;SDS011;42848;42.524;12.052;2023-02-01T08:47:30;22.25;;;11.95;;
56943;SDS011;42848;42.524;12.052;2023-02-01T08:49:56;19.15;;;10.70;;
56943;SDS011;42848;42.524;12.052;2023-02-01T08:52:22;23.02;;;11.13;;
56943;SDS011;42848;42.524;12.052;2023-02-01T08:54:47;15.45;;;9.75;;
56943;SDS011;42848;42.524;12.052;2023-02-01T08:57:13;17.40;;;9.77;;
56943;SDS011;42848;42.524;12.052;2023-02-01T08:59:39;18.17;;;9.90;;
56943;SDS011;42848;42.524;12.052;2023-02-01T09:02:05;16.45;;;9.35;;
56943;SDS011;42848;42.524;12.052;2023-02-01T09:04:31;16.23;;;9.65;;
56943;SDS011;42848;42.524;12.052;2023-02-01T09:06:56;15.10;;;9.00;;
56943;SDS011;42848;42.524;12.052;2023-02-01T09:09:22;16.05;;;8.85;;
56943;SDS011;42848;42.524;12.052;2023-02-01T09:11:49;19.42;;;11.05;;
56943;SDS011;42848;42.524;12.052;2023-02-01T09:14:15;17.08;;;9.93;;
56943;SDS011;42848;42.524;12.052;2023-02-01T09:16:42;17.67;;;9.85;;
56943;SDS011;42848;42.524;12.052;2023-02-01T09:19:07;14.02;;;8.98;;
56943;SDS011;42848;42.524;12.052;2023-02-01T09:21:33;15.63;;;9.32;;
56943;SDS011;42848;42.524;12.052;2023-02-01T09:23:59;15.05;;;8.52;;
56943;SDS011;42848;42.524;12.052;2023-02-01T09:26:25;12.57;;;8.23;;
56943;SDS011;42848;42.524;12.052;2023-02-01T09:28:51;14.00;;;8.73;;
56943;SDS011;42848;42.524;12.052;2023-02-01T09:31:17;14.48;;;8.30;;
56943;SDS011;42848;42.524;12.052;2023-02-01T09:33:43;16.65;;;8.75;;
56943;SDS011;42848;42.524;12.052;2023-02-01T09:36:08;16.13;;;9.07;;
56943;SDS011;42848;42.524;12.052;2023-02-01T09:38:34;14.85;;;9.25;;
56943;SDS011;42848;42.524;12.052;2023-02-01T09:41:00;16.17;;;8.93;;
56943;SDS011;42848;42.524;12.052;2023-02-01T09:46:24;16.20;;;9.32;;
56943;SDS011;42848;42.524;12.052;2023-02-01T09:48:54;16.17;;;8.85;;
56943;SDS011;42848;42.524;12.052;2023-02-01T09:51:31;17.70;;;9.60;;
56943;SDS011;42848;42.524;12.052;2023-02-01T09:56:46;15.75;;;8.90;;
56943;SDS011;42848;42.524;12.052;2023-02-01T09:59:22;20.70;;;10.30;;
56943;SDS011;42848;42.524;12.052;2023-02-01T10:01:56;16.42;;;9.50;;
56943;SDS011;42848;42.524;12.052;2023-02-01T10:04:24;21.42;;;10.07;;
56943;SDS011;42848;42.524;12.052;2023-02-01T10:20:53;16.70;;;9.07;;
56943;SDS011;42848;42.524;12.052;2023-02-01T10:28:55;13.73;;;6.95;;
56943;SDS011;42848;42.524;12.052;2023-02-01T10:31:24;13.75;;;7.38;;
56943;SDS011;42848;42.524;12.052;2023-02-01T10:33:57;12.60;;;7.20;;
56943;SDS011;42848;42.524;12.052;2023-02-01T10:36:30;11.95;;;7.00;;
56943;SDS011;42848;42.524;12.052;2023-02-01T10:41:29;14.02;;;6.95;;
56943;SDS011;42848;42.524;12.052;2023-02-01T10:43:58;11.82;;;6.63;;
56943;SDS011;42848;42.524;12.052;2023-02-01T10:46:25;11.00;;;6.25;;
56943;SDS011;42848;42.524;12.052;2023-02-01T10:48:55;11.52;;;6.75;;
56943;SDS011;42848;42.524;12.052;2023-02-01T10:51:26;15.38;;;6.80;;
56943;SDS011;42848;42.524;12.052;2023-02-01T10:53:58;12.88;;;6.55;;
56943;SDS011;42848;42.524;12.052;2023-02-01T10:56:28;11.38;;;6.82;;
56943;SDS011;42848;42.524;12.052;2023-02-01T10:59:01;12.23;;;6.53;;
56943;SDS011;42848;42.524;12.052;2023-02-01T11:01:37;11.35;;;5.70;;
56943;SDS011;42848;42.524;12.052;2023-02-01T11:04:16;13.05;;;6.40;;
56943;SDS011;42848;42.524;12.052;2023-02-01T11:06:52;11.93;;;6.15;;
56943;SDS011;42848;42.524;12.052;2023-02-01T11:09:32;10.82;;;5.45;;
56943;SDS011;42848;42.524;12.052;2023-02-01T11:12:05;9.05;;;5.40;;
56943;SDS011;42848;42.524;12.052;2023-02-01T11:14:45;15.82;;;5.70;;
56943;SDS011;42848;42.524;12.052;2023-02-01T11:17:32;12.77;;;6.25;;
56943;SDS011;42848;42.524;12.052;2023-02-01T11:20:02;12.23;;;5.22;;
56943;SDS011;42848;42.524;12.052;2023-02-01T11:22:30;9.05;;;5.40;;
56943;SDS011;42848;42.524;12.052;2023-02-01T11:24:56;9.00;;;4.05;;
56943;SDS011;42848;42.524;12.052;2023-02-01T11:27:24;8.35;;;4.50;;
56943;SDS011;42848;42.524;12.052;2023-02-01T11:29:52;13.15;;;4.82;;
56943;SDS011;42848;42.524;12.052;2023-02-01T11:32:23;12.27;;;5.72;;
56943;SDS011;42848;42.524;12.052;2023-02-01T11:34:56;11.43;;;4.60;;
56943;SDS011;42848;42.524;12.052;2023-02-01T11:37:27;11.73;;;5.63;;
56943;SDS011;42848;42.524;12.052;2023-02-01T11:39:57;8.52;;;4.85;;
56943;SDS011;42848;42.524;12.052;2023-02-01T11:42:25;9.80;;;4.40;;
56943;SDS011;42848;42.524;12.052;2023-02-01T11:45:07;11.65;;;6.40;;
56943;SDS011;42848;42.524;12.052;2023-02-01T11:47:43;18.40;;;8.02;;
56943;SDS011;42848;42.524;12.052;2023-02-01T11:50:18;13.85;;;5.78;;
56943;SDS011;42848;42.524;12.052;2023-02-01T12:01:28;10.35;;;5.07;;
56943;SDS011;42848;42.524;12.052;2023-02-01T12:04:18;13.15;;;5.90;;
56943;SDS011;42848;42.524;12.052;2023-02-01T12:07:01;14.13;;;7.00;;
56943;SDS011;42848;42.524;12.052;2023-02-01T12:12:12;8.93;;;4.20;;
56943;SDS011;42848;42.524;12.052;2023-02-01T12:17:35;11.13;;;5.68;;
56943;SDS011;42848;42.524;12.052;2023-02-01T12:20:41;10.50;;;5.65;;
56943;SDS011;42848;42.524;12.052;2023-02-01T12:31:52;37.93;;;18.97;;
56943;SDS011;42848;42.524;12.052;2023-02-01T12:34:41;11.27;;;5.97;;
56943;SDS011;42848;42.524;12.052;2023-02-01T12:43:12;13.00;;;8.50;;
56943;SDS011;42848;42.524;12.052;2023-02-01T12:48:26;14.57;;;8.95;;
56943;SDS011;42848;42.524;12.052;2023-02-01T12:51:01;9.75;;;6.53;;
56943;SDS011;42848;42.524;12.052;2023-02-01T12:53:50;8.13;;;4.85;;
56943;SDS011;42848;42.524;12.052;2023-02-01T12:56:20;8.98;;;5.15;;
56943;SDS011;42848;42.524;12.052;2023-02-01T12:58:52;10.95;;;6.63;;
56943;SDS011;42848;42.524;12.052;2023-02-01T13:01:33;7.65;;;4.43;;
56943;SDS011;42848;42.524;12.052;2023-02-01T13:04:05;9.30;;;5.70;;
56943;SDS011;42848;42.524;12.052;2023-02-01T13:06:50;5.43;;;3.20;;
56943;SDS011;42848;42.524;12.052;2023-02-01T13:09:26;7.85;;;4.70;;
56943;SDS011;42848;42.524;12.052;2023-02-01T13:12:04;7.22;;;3.78;;
56943;SDS011;42848;42.524;12.052;2023-02-01T13:17:18;19.50;;;12.73;;
56943;SDS011;42848;42.524;12.052;2023-02-01T13:25:19;7.95;;;5.47;;
56943;SDS011;42848;42.524;12.052;2023-02-01T13:28:24;9.18;;;6.30;;
56943;SDS011;42848;42.524;12.052;2023-02-01T13:41:52;10.13;;;7.00;;
56943;SDS011;42848;42.524;12.052;2023-02-01T13:45:13;9.43;;;6.15;;
56943;SDS011;42848;42.524;12.052;2023-02-01T13:48:02;7.47;;;4.50;;
56943;SDS011;42848;42.524;12.052;2023-02-01T13:50:35;6.10;;;3.13;;
56943;SDS011;42848;42.524;12.052;2023-02-01T13:55:39;11.25;;;7.35;;
56943;SDS011;42848;42.524;12.052;2023-02-01T14:00:45;12.38;;;6.95;;
56943;SDS011;42848;42.524;12.052;2023-02-01T14:03:14;13.48;;;7.22;;
56943;SDS011;42848;42.524;12.052;2023-02-01T14:08:21;13.85;;;7.80;;
56943;SDS011;42848;42.524;12.052;2023-02-01T14:13:33;8.65;;;4.20;;
56943;SDS011;42848;42.524;12.052;2023-02-01T14:21:17;5.68;;;3.50;;
56943;SDS011;42848;42.524;12.052;2023-02-01T14:23:47;8.60;;;3.92;;
56943;SDS011;42848;42.524;12.052;2023-02-01T14:26:26;5.20;;;3.28;;
56943;SDS011;42848;42.524;12.052;2023-02-01T14:34:15;7.18;;;3.78;;
56943;SDS011;42848;42.524;12.052;2023-02-01T14:36:51;5.68;;;3.45;;
56943;SDS011;42848;42.524;12.052;2023-02-01T14:39:31;6.82;;;3.70;;
56943;SDS011;42848;42.524;12.052;2023-02-01T14:42:03;8.65;;;3.80;;
56943;SDS011;42848;42.524;12.052;2023-02-01T14:44:39;7.50;;;3.50;;
56943;SDS011;42848;42.524;12.052;2023-02-01T14:47:05;7.35;;;4.80;;
56943;SDS011;42848;42.524;12.052;2023-02-01T14:49:37;6.18;;;4.03;;
56943;SDS011;42848;42.524;12.052;2023-02-01T14:52:09;11.63;;;5.63;;
56943;SDS011;42848;42.524;12.052;2023-02-01T14:54:40;8.50;;;4.95;;
56943;SDS011;42848;42.524;12.052;2023-02-01T14:57:13;8.02;;;3.90;;
56943;SDS011;42848;42.524;12.052;2023-02-01T14:59:44;11.98;;;6.88;;
56943;SDS011;42848;42.524;12.052;2023-02-01T15:02:18;11.52;;;5.82;;
56943;SDS011;42848;42.524;12.052;2023-02-01T15:04:52;15.23;;;7.43;;
56943;SDS011;42848;42.524;12.052;2023-02-01T15:07:20;17.55;;;10.65;;
56943;SDS011;42848;42.524;12.052;2023-02-01T15:09:47;9.50;;;5.63;;
56943;SDS011;42848;42.524;12.052;2023-02-01T15:12:18;8.73;;;5.00;;
56943;SDS011;42848;42.524;12.052;2023-02-01T15:15:11;6.38;;;4.40;;
56943;SDS011;42848;42.524;12.052;2023-02-01T15:17:39;9.95;;;4.57;;
56943;SDS011;42848;42.524;12.052;2023-02-01T15:20:16;9.05;;;5.10;;
56943;SDS011;42848;42.524;12.052;2023-02-01T15:22:59;10.23;;;6.53;;
56943;SDS011;42848;42.524;12.052;2023-02-01T15:25:28;9.00;;;5.10;;
56943;SDS011;42848;42.524;12.052;2023-02-01T15:28:02;9.65;;;5.60;;
56943;SDS011;42848;42.524;12.052;2023-02-01T15:30:29;10.20;;;6.20;;
56943;SDS011;42848;42.524;12.052;2023-02-01T15:33:04;10.75;;;5.53;;
56943;SDS011;42848;42.524;12.052;2023-02-01T15:35:42;7.53;;;4.53;;
56943;SDS011;42848;42.524;12.052;2023-02-01T15:40:54;8.68;;;4.55;;
56943;SDS011;42848;42.524;12.052;2023-02-01T15:43:23;7.72;;;5.10;;
56943;SDS011;42848;42.524;12.052;2023-02-01T15:45:50;8.13;;;4.57;;
56943;SDS011;42848;42.524;12.052;2023-02-01T15:48:22;14.30;;;6.55;;
56943;SDS011;42848;42.524;12.052;2023-02-01T15:50:50;11.85;;;7.55;;
56943;SDS011;42848;42.524;12.052;2023-02-01T15:53:18;19.15;;;11.68;;
56943;SDS011;42848;42.524;12.052;2023-02-01T15:55:47;12.65;;;6.18;;
56943;SDS011;42848;42.524;12.052;2023-02-01T15:58:20;13.13;;;7.65;;
56943;SDS011;42848;42.524;12.052;2023-02-01T16:00:48;14.68;;;7.68;;
56943;SDS011;42848;42.524;12.052;2023-02-01T16:03:35;10.73;;;6.72;;
56943;SDS011;42848;42.524;12.052;2023-02-01T16:06:10;11.38;;;6.80;;
56943;SDS011;42848;42.524;12.052;2023-02-01T16:08:49;13.32;;;7.47;;
56943;SDS011;42848;42.524;12.052;2023-02-01T16:11:27;9.25;;;5.75;;
56943;SDS011;42848;42.524;12.052;2023-02-01T16:13:56;21.08;;;12.32;;
56943;SDS011;42848;42.524;12.052;2023-02-01T16:16:23;12.65;;;7.47;;
56943;SDS011;42848;42.524;12.052;2023-02-01T16:18:49;10.98;;;5.38;;
56943;SDS011;42848;42.524;12.052;2023-02-01T16:21:15;11.45;;;5.85;;
56943;SDS011;42848;42.524;12.052;2023-02-01T16:23:40;12.40;;;6.03;;
56943;SDS011;42848;42.524;12.052;2023-02-01T16:26:06;9.10;;;5.25;;
56943;SDS011;42848;42.524;12.052;2023-02-01T16:28:32;10.45;;;5.65;;
56943;SDS011;42848;42.524;12.052;2023-02-01T16:30:58;9.30;;;5.85;;
56943;SDS011;42848;42.524;12.052;2023-02-01T16:33:25;9.07;;;5.63;;
56943;SDS011;42848;42.524;12.052;2023-02-01T16:35:51;9.15;;;5.30;;
56943;SDS011;42848;42.524;12.052;2023-02-01T16:38:21;13.90;;;7.40;;
56943;SDS011;42848;42.524;12.052;2023-02-01T16:40:48;15.18;;;8.05;;
56943;SDS011;42848;42.524;12.052;2023-02-01T16:43:15;15.20;;;9.10;;
56943;SDS011;42848;42.524;12.052;2023-02-01T16:45:43;12.65;;;7.68;;
56943;SDS011;42848;42.524;12.052;2023-02-01T16:48:26;14.15;;;7.45;;
56943;SDS011;42848;42.524;12.052;2023-02-01T16:50:59;13.88;;;7.70;;
56943;SDS011;42848;42.524;12.052;2023-02-01T16:53:28;17.45;;;8.55;;